createdAt,value
2019-03-11T00:00:49.717Z,2.50
2019-03-11T00:03:20.909Z,2.70
2019-03-11T00:05:52.051Z,2.40
2019-03-11T00:08:23.199Z,2.30
2019-03-11T00:10:54.255Z,1.93
2019-03-11T00:13:25.451Z,1.90
2019-03-11T00:15:56.534Z,1.90
2019-03-11T00:18:27.646Z,1.80
2019-03-11T00:20:58.835Z,1.53
2019-03-11T00:23:30.009Z,1.07
2019-03-11T00:26:01.159Z,1.30
2019-03-11T00:28:32.297Z,1.20
2019-03-11T00:31:03.398Z,1.30
2019-03-11T00:33:34.604Z,1.00
2019-03-11T00:36:05.630Z,1.30
2019-03-11T00:38:36.750Z,1.03
2019-03-11T00:41:07.796Z,1.03
2019-03-11T00:43:38.880Z,1.10
2019-03-11T00:46:09.957Z,1.20
2019-03-11T00:48:41.011Z,1.00
2019-03-11T00:51:12.135Z,1.20
2019-03-11T00:53:43.183Z,1.40
2019-03-11T00:56:14.434Z,1.50
2019-03-11T00:58:45.499Z,2.00
2019-03-11T01:01:17.050Z,1.90
2019-03-11T01:03:48.041Z,1.90
2019-03-11T01:06:19.220Z,2.00
2019-03-11T01:08:50.361Z,2.17
2019-03-11T01:11:21.428Z,3.00
2019-03-11T01:13:52.597Z,3.07
2019-03-11T01:16:23.651Z,2.67
2019-03-11T01:18:54.798Z,3.30
2019-03-11T01:21:25.985Z,2.57
2019-03-11T01:23:57.123Z,2.00
2019-03-11T01:26:28.226Z,2.30
2019-03-11T01:28:59.317Z,2.47
2019-03-11T01:31:30.835Z,2.40
2019-03-11T01:34:03.017Z,2.80
2019-03-11T01:36:34.214Z,2.20
2019-03-11T01:39:06.848Z,2.00
2019-03-11T01:41:37.948Z,1.50
2019-03-11T01:44:09.022Z,1.40
2019-03-11T01:46:40.082Z,1.30
2019-03-11T01:49:11.163Z,1.30
2019-03-11T01:51:43.246Z,1.40
2019-03-11T01:54:14.325Z,1.77
2019-03-11T01:56:45.483Z,1.60
2019-03-11T01:59:16.781Z,1.40
2019-03-11T02:01:48.634Z,1.60
2019-03-11T02:04:19.805Z,1.33
2019-03-11T02:06:50.901Z,1.50
2019-03-11T02:09:22.306Z,1.80
2019-03-11T02:11:53.441Z,1.50
2019-03-11T02:14:24.623Z,1.73
2019-03-11T02:16:55.738Z,1.90
2019-03-11T02:19:26.817Z,1.80
2019-03-11T02:21:57.882Z,2.20
2019-03-11T02:24:28.958Z,2.37
2019-03-11T02:27:00.141Z,3.10
2019-03-11T02:29:31.269Z,2.63
2019-03-11T02:32:02.363Z,2.83
2019-03-11T02:34:33.497Z,2.90
2019-03-11T02:37:04.555Z,2.97
2019-03-11T02:39:35.628Z,3.13
2019-03-11T02:42:06.707Z,3.57
2019-03-11T02:44:37.812Z,3.60
2019-03-11T02:47:08.986Z,3.93
2019-03-11T02:49:43.645Z,3.83
2019-03-11T02:52:13.899Z,3.97
2019-03-11T02:54:44.992Z,4.60
2019-03-11T02:57:16.121Z,4.57
2019-03-11T02:59:47.181Z,4.57
2019-03-11T03:02:37.940Z,4.33
2019-03-11T03:05:19.349Z,4.40
2019-03-11T03:07:50.390Z,4.20
2019-03-11T03:10:21.454Z,3.90
2019-03-11T03:12:52.513Z,5.00
2019-03-11T03:15:23.676Z,4.50
2019-03-11T03:17:54.728Z,3.33
2019-03-11T03:20:26.948Z,2.87
2019-03-11T03:22:58.101Z,3.53
2019-03-11T03:25:34.467Z,3.10
2019-03-11T03:28:02.130Z,2.50
2019-03-11T03:30:33.257Z,2.77
2019-03-11T03:33:04.483Z,3.13
2019-03-11T03:35:35.688Z,2.93
2019-03-11T03:38:06.751Z,2.80
2019-03-11T03:40:37.849Z,3.10
2019-03-11T03:43:09.198Z,3.33
2019-03-11T03:45:42.632Z,3.33
2019-03-11T03:48:14.672Z,2.90
2019-03-11T03:50:45.718Z,3.30
2019-03-11T03:53:16.762Z,3.10
2019-03-11T03:55:47.879Z,2.77
2019-03-11T03:58:19.051Z,3.00
2019-03-11T04:00:50.195Z,2.83
2019-03-11T04:03:21.264Z,3.00
2019-03-11T04:05:52.323Z,3.37
2019-03-11T04:08:23.509Z,4.13
2019-03-11T04:10:54.653Z,4.30
2019-03-11T04:13:25.788Z,3.83
2019-03-11T04:15:56.854Z,4.90
2019-03-11T04:18:49.014Z,4.83
2019-03-11T04:21:20.182Z,4.80
2019-03-11T04:23:51.498Z,3.37
2019-03-11T04:26:25.853Z,3.83
2019-03-11T04:28:57.233Z,3.87
2019-03-11T04:31:29.731Z,3.30
2019-03-11T04:34:00.831Z,3.13
2019-03-11T04:36:31.951Z,3.37
2019-03-11T04:39:04.604Z,4.60
2019-03-11T04:41:36.232Z,4.67
2019-03-11T04:44:07.412Z,4.53
2019-03-11T04:46:38.461Z,5.33
2019-03-11T04:49:09.637Z,6.87
2019-03-11T04:51:40.717Z,7.03
2019-03-11T04:54:11.852Z,6.27
2019-03-11T04:56:44.049Z,7.57
2019-03-11T04:59:15.124Z,7.33
2019-03-11T05:01:46.310Z,7.63
2019-03-11T05:04:17.437Z,7.10
2019-03-11T05:06:48.581Z,7.70
2019-03-11T05:09:19.663Z,6.93
2019-03-11T05:11:50.779Z,7.60
2019-03-11T05:14:21.978Z,7.20
2019-03-11T05:16:53.084Z,7.10
2019-03-11T05:19:24.168Z,7.57
2019-03-11T05:21:55.265Z,7.40
2019-03-11T05:24:26.476Z,7.30
2019-03-11T05:26:57.647Z,7.33
2019-03-11T05:29:28.688Z,7.40
2019-03-11T05:31:59.854Z,7.30
2019-03-11T05:34:31.020Z,7.03
2019-03-11T05:37:02.121Z,6.70
2019-03-11T05:39:33.150Z,5.33
2019-03-11T05:42:05.308Z,5.03
2019-03-11T05:44:36.438Z,5.43
2019-03-11T05:47:07.537Z,4.73
2019-03-11T05:49:38.660Z,4.80
2019-03-11T05:52:09.742Z,4.47
2019-03-11T05:54:40.794Z,5.27
2019-03-11T05:57:11.959Z,5.07
2019-03-11T05:59:43.127Z,4.87
2019-03-11T06:02:14.229Z,5.17
2019-03-11T06:04:45.368Z,4.40
2019-03-11T06:07:16.496Z,3.93
2019-03-11T06:09:47.593Z,3.97
2019-03-11T06:12:18.736Z,4.47
2019-03-11T06:14:49.975Z,4.90
2019-03-11T06:17:21.093Z,4.30
2019-03-11T06:20:00.783Z,4.83
2019-03-11T06:22:33.298Z,5.00
2019-03-11T06:25:04.607Z,4.87
2019-03-11T06:27:35.760Z,5.97
2019-03-11T06:30:08.209Z,6.10
2019-03-11T06:32:39.611Z,5.97
2019-03-11T06:35:11.926Z,6.70
2019-03-11T06:37:43.075Z,7.80
2019-03-11T06:40:14.572Z,7.77
2019-03-11T06:42:45.686Z,7.80
2019-03-11T06:45:16.896Z,7.47
2019-03-11T06:47:47.981Z,8.23
2019-03-11T06:50:19.136Z,8.30
2019-03-11T06:52:50.251Z,8.73
2019-03-11T06:55:21.357Z,7.87
2019-03-11T06:57:54.726Z,7.90
2019-03-11T07:00:25.885Z,7.57
2019-03-11T07:02:58.013Z,7.33
2019-03-11T07:05:29.487Z,7.33
2019-03-11T07:08:00.603Z,7.87
2019-03-11T07:10:32.719Z,7.20
2019-03-11T07:13:03.775Z,8.10
2019-03-11T07:15:34.920Z,8.10
2019-03-11T07:18:07.573Z,7.83
2019-03-11T07:20:38.725Z,7.67
2019-03-11T07:23:09.916Z,7.73
2019-03-11T07:25:41.057Z,7.30
2019-03-11T07:28:12.173Z,7.80
2019-03-11T07:30:43.390Z,7.37
2019-03-11T07:33:15.549Z,8.07
2019-03-11T07:35:46.650Z,6.43
2019-03-11T07:38:17.832Z,6.60
2019-03-11T07:40:48.902Z,5.93
2019-03-11T07:43:20.012Z,6.17
2019-03-11T07:45:51.234Z,6.53
2019-03-11T07:48:22.638Z,6.00
2019-03-11T07:50:54.108Z,5.47
2019-03-11T07:53:25.310Z,5.53
2019-03-11T07:55:56.471Z,5.37
2019-03-11T07:58:27.581Z,4.87
2019-03-11T08:00:58.678Z,5.07
2019-03-11T08:03:29.834Z,4.83
2019-03-11T08:06:00.950Z,4.60
2019-03-11T08:08:32.158Z,4.33
2019-03-11T08:11:03.305Z,4.03
2019-03-11T08:13:34.473Z,3.60
2019-03-11T08:16:05.770Z,2.90
2019-03-11T08:18:36.882Z,2.73
2019-03-11T08:21:08.002Z,3.00
2019-03-11T08:23:39.164Z,2.60
2019-03-11T08:26:10.379Z,2.73
2019-03-11T08:28:41.568Z,2.13
2019-03-11T08:31:12.665Z,2.03
2019-03-11T08:33:43.771Z,2.67
2019-03-11T08:36:14.900Z,2.00
2019-03-11T08:38:46.029Z,2.17
2019-03-11T08:41:17.085Z,1.60
2019-03-11T08:43:49.289Z,2.03
2019-03-11T08:46:20.492Z,1.80
2019-03-11T08:48:51.857Z,1.87
2019-03-11T08:51:22.888Z,2.87
2019-03-11T08:53:54.057Z,2.17
2019-03-11T08:56:25.195Z,2.17
2019-03-11T08:58:56.325Z,2.33
2019-03-11T09:01:27.457Z,1.87
2019-03-11T09:03:58.579Z,1.83
2019-03-11T09:06:29.709Z,1.80
2019-03-11T09:09:01.473Z,2.00
2019-03-11T09:11:34.129Z,1.97
2019-03-11T09:14:05.451Z,1.87
2019-03-11T09:16:36.553Z,1.90
2019-03-11T09:19:07.810Z,1.80
2019-03-11T09:21:38.927Z,1.60
2019-03-11T09:24:18.698Z,1.50
2019-03-11T09:26:42.796Z,2.27
2019-03-11T09:29:13.906Z,2.10
2019-03-11T09:31:46.031Z,2.13
2019-03-11T09:34:17.313Z,2.03
2019-03-11T09:36:48.335Z,2.63
2019-03-11T09:39:19.437Z,1.90
2019-03-11T09:41:50.604Z,1.93
2019-03-11T09:44:21.755Z,2.37
2019-03-11T09:46:52.944Z,1.70
2019-03-11T09:49:24.137Z,2.00
2019-03-11T09:51:55.222Z,1.73
2019-03-11T09:54:26.292Z,1.93
2019-03-11T09:56:57.478Z,1.60
2019-03-11T09:59:28.554Z,2.37
2019-03-11T10:01:59.668Z,1.67
2019-03-11T10:04:30.731Z,2.10
2019-03-11T10:07:02.868Z,1.90
2019-03-11T10:09:34.086Z,2.20
2019-03-11T10:12:05.161Z,2.40
2019-03-11T10:14:36.302Z,2.10
2019-03-11T10:17:07.433Z,2.13
2019-03-11T10:19:38.503Z,2.60
2019-03-11T10:22:09.613Z,2.27
2019-03-11T10:24:40.769Z,2.30
2019-03-11T10:27:11.908Z,2.40
2019-03-11T10:29:43.078Z,2.30
2019-03-11T10:32:14.150Z,1.80
2019-03-11T10:34:45.312Z,2.43
2019-03-11T10:37:16.426Z,2.53
2019-03-11T10:39:48.142Z,2.23
2019-03-11T10:42:19.454Z,1.87
2019-03-11T10:44:50.632Z,2.10
2019-03-11T10:47:21.693Z,2.10
2019-03-11T10:49:52.782Z,2.40
2019-03-11T10:52:23.962Z,2.40
2019-03-11T10:54:54.998Z,2.40
2019-03-11T10:57:26.079Z,2.20
2019-03-11T10:59:57.159Z,2.20
2019-03-11T11:02:28.333Z,2.10
2019-03-11T11:04:59.438Z,2.17
2019-03-11T11:07:30.532Z,2.33
2019-03-11T11:10:01.605Z,2.43
2019-03-11T11:12:32.764Z,2.30
2019-03-11T11:15:03.913Z,2.67
2019-03-11T11:17:35.027Z,2.30
2019-03-11T11:20:07.604Z,2.00
2019-03-11T11:22:38.907Z,2.50
2019-03-11T11:25:11.990Z,2.60
2019-03-11T11:27:43.282Z,2.27
2019-03-11T11:30:20.315Z,3.03
2019-03-11T11:32:51.656Z,2.10
2019-03-11T11:35:22.746Z,2.47
2019-03-11T11:37:53.959Z,3.10
2019-03-11T11:40:25.177Z,2.40
2019-03-11T11:42:57.412Z,2.07
2019-03-11T11:45:28.695Z,2.90
2019-03-11T11:47:59.867Z,2.40
2019-03-11T11:50:31.036Z,2.77
2019-03-11T11:53:02.156Z,2.57
2019-03-11T11:55:33.341Z,2.10
2019-03-11T11:58:04.520Z,2.57
2019-03-11T12:00:36.282Z,2.70
2019-03-11T12:03:07.511Z,2.60
2019-03-11T12:05:38.661Z,2.17
2019-03-11T12:08:09.948Z,2.40
2019-03-11T12:10:41.155Z,2.40
2019-03-11T12:13:12.451Z,2.77
2019-03-11T12:15:43.590Z,2.40
2019-03-11T12:18:14.775Z,2.67
2019-03-11T12:20:46.335Z,2.50
2019-03-11T12:23:17.501Z,2.57
2019-03-11T12:25:48.716Z,3.73
2019-03-11T12:28:19.894Z,3.33
2019-03-11T12:30:51.072Z,3.07
2019-03-11T12:33:22.142Z,1.10
2019-03-11T12:35:53.292Z,1.20
2019-03-11T12:38:24.425Z,0.90
2019-03-11T12:40:55.823Z,0.77
2019-03-11T12:43:26.922Z,0.90
2019-03-11T12:45:58.139Z,0.70
2019-03-11T12:48:29.149Z,0.30
2019-03-11T12:51:00.288Z,0.40
2019-03-11T12:53:31.410Z,0.50
2019-03-11T12:56:02.514Z,0.60
2019-03-11T12:58:41.387Z,0.70
2019-03-11T13:01:07.943Z,1.00
2019-03-11T13:03:39.124Z,1.20
2019-03-11T13:06:10.215Z,1.10
2019-03-11T13:08:41.414Z,1.23
2019-03-11T13:11:12.669Z,1.27
2019-03-11T13:13:43.876Z,1.53
2019-03-11T13:16:14.983Z,1.60
2019-03-11T13:18:48.097Z,1.60
2019-03-11T13:21:30.504Z,1.47
2019-03-11T13:24:01.734Z,1.70
2019-03-11T13:26:32.848Z,1.37
2019-03-11T13:29:04.136Z,2.37
2019-03-11T13:31:35.294Z,2.13
2019-03-11T13:34:06.434Z,2.50
2019-03-11T13:36:37.590Z,2.40
2019-03-11T13:39:10.878Z,1.77
2019-03-11T13:41:42.002Z,2.10
2019-03-11T13:44:13.183Z,2.00
2019-03-11T13:46:44.371Z,1.90
2019-03-11T13:49:15.574Z,2.27
2019-03-11T13:51:46.852Z,2.10
2019-03-11T13:54:18.049Z,2.30
2019-03-11T13:56:49.249Z,2.20
2019-03-11T13:59:20.388Z,2.40
2019-03-11T14:01:51.612Z,2.10
2019-03-11T14:04:22.732Z,2.30
2019-03-11T14:06:53.965Z,2.97
2019-03-11T14:09:25.150Z,2.53
2019-03-11T14:11:56.342Z,2.30
2019-03-11T14:14:27.625Z,2.73
2019-03-11T14:17:01.476Z,2.50
2019-03-11T14:19:32.642Z,3.73
2019-03-11T14:22:04.113Z,1.83
2019-03-11T14:24:35.475Z,1.97
2019-03-11T14:27:06.638Z,2.73
2019-03-11T14:29:37.880Z,2.30
2019-03-11T14:32:08.973Z,2.80
2019-03-11T14:34:40.193Z,2.10
2019-03-11T14:37:11.452Z,1.90
2019-03-11T14:39:42.656Z,2.07
2019-03-11T14:42:13.806Z,2.33
2019-03-11T14:44:45.972Z,2.33
2019-03-11T14:47:17.121Z,2.57
2019-03-11T14:49:48.274Z,2.27
2019-03-11T14:52:19.717Z,2.57
2019-03-11T14:54:52.033Z,1.80
2019-03-11T14:57:23.241Z,1.90
2019-03-11T14:59:54.446Z,2.37
2019-03-11T15:02:30.650Z,2.20
2019-03-11T15:05:34.387Z,2.10
2019-03-11T15:08:09.289Z,2.50
2019-03-11T15:10:59.670Z,2.20
2019-03-11T15:13:30.807Z,3.17
2019-03-11T15:16:02.131Z,1.40
2019-03-11T15:18:33.270Z,1.50
2019-03-11T15:21:04.455Z,1.93
2019-03-11T15:23:35.602Z,0.90
2019-03-11T15:26:06.745Z,1.10
2019-03-11T15:28:37.973Z,0.97
2019-03-11T15:31:10.741Z,1.00
2019-03-11T15:33:42.017Z,0.87
2019-03-11T15:36:13.129Z,0.80
2019-03-11T15:38:44.305Z,0.90
2019-03-11T15:41:15.572Z,1.20
2019-03-11T15:43:46.760Z,1.57
2019-03-11T15:46:18.034Z,1.47
2019-03-11T15:48:49.458Z,1.40
2019-03-11T15:51:20.647Z,1.20
2019-03-11T15:53:51.888Z,1.40
2019-03-11T15:56:23.046Z,1.70
2019-03-11T15:58:54.541Z,1.57
2019-03-11T16:01:25.998Z,1.53
2019-03-11T16:03:57.565Z,1.50
2019-03-11T16:06:28.813Z,1.50
2019-03-11T16:09:02.036Z,6.77
2019-03-11T16:11:34.441Z,1.87
2019-03-11T16:14:05.795Z,1.90
2019-03-11T16:16:36.993Z,1.70
2019-03-11T16:19:08.512Z,1.87
2019-03-11T16:21:41.013Z,2.10
2019-03-11T16:24:12.347Z,2.00
2019-03-11T16:26:43.539Z,2.00
2019-03-11T16:29:14.738Z,1.80
2019-03-11T16:31:46.028Z,1.90
2019-03-11T16:34:17.183Z,2.73
2019-03-11T16:36:48.442Z,2.50
2019-03-11T16:39:19.643Z,2.50
2019-03-11T16:41:50.827Z,3.30
2019-03-11T16:44:22.011Z,4.53
2019-03-11T16:46:53.231Z,3.20
2019-03-11T16:49:24.475Z,3.00
2019-03-11T16:51:55.678Z,2.90
2019-03-11T16:54:26.955Z,3.47
2019-03-11T16:56:58.344Z,3.67
2019-03-11T16:59:29.568Z,3.20
2019-03-11T17:02:00.848Z,4.03
2019-03-11T17:04:31.994Z,5.10
2019-03-11T17:07:03.194Z,5.13
2019-03-11T17:09:34.421Z,6.00
2019-03-11T17:12:05.653Z,5.97
2019-03-11T17:14:36.796Z,5.53
2019-03-11T17:17:07.974Z,7.40
2019-03-11T17:19:39.997Z,5.77
2019-03-11T17:23:32.561Z,2.87
2019-03-11T17:26:03.857Z,3.63
2019-03-11T17:28:35.039Z,3.43
2019-03-11T17:31:06.173Z,3.30
2019-03-11T17:33:37.507Z,3.10
2019-03-11T17:36:08.899Z,4.03
2019-03-11T17:38:40.051Z,3.73
2019-03-11T17:41:12.450Z,4.27
2019-03-11T17:43:43.706Z,3.73
2019-03-11T17:46:14.935Z,3.70
2019-03-11T17:48:46.150Z,3.93
2019-03-11T17:59:03.609Z,4.10
2019-03-11T18:01:34.759Z,6.57
2019-03-11T18:04:05.936Z,4.73
2019-03-11T18:06:37.053Z,4.77
2019-03-11T18:09:08.797Z,4.57
2019-03-11T18:11:40.304Z,4.43
2019-03-11T18:14:11.700Z,4.77
2019-03-11T18:16:42.882Z,4.33
2019-03-11T18:19:14.124Z,4.50
2019-03-11T18:21:45.442Z,5.77
2019-03-11T18:24:16.774Z,5.73
2019-03-11T18:26:48.121Z,6.00
2019-03-11T18:29:19.863Z,8.50
2019-03-11T18:32:01.238Z,9.33
2019-03-11T18:34:26.178Z,11.43
2019-03-11T18:36:57.510Z,12.13
2019-03-11T18:39:29.042Z,12.73
2019-03-11T18:42:00.835Z,12.93
2019-03-11T18:44:34.614Z,11.53
2019-03-11T18:47:06.148Z,11.67
2019-03-11T18:49:38.021Z,11.33
2019-03-11T18:52:09.341Z,10.27
2019-03-11T18:54:40.510Z,11.57
2019-03-11T18:57:12.060Z,11.67
2019-03-11T18:59:43.353Z,10.33
2019-03-11T19:02:14.585Z,11.00
2019-03-11T19:04:45.843Z,11.87
2019-03-11T19:07:17.158Z,11.87
2019-03-11T19:09:48.557Z,12.00
2019-03-11T19:12:20.627Z,12.27
2019-03-11T19:14:53.287Z,12.00
2019-03-11T19:17:27.596Z,11.93
2019-03-11T19:19:59.896Z,11.77
2019-03-11T19:22:32.466Z,11.47
2019-03-11T19:25:03.734Z,10.13
2019-03-11T19:27:38.466Z,11.47
2019-03-11T19:30:13.495Z,12.13
2019-03-11T19:32:44.654Z,11.43
2019-03-11T19:35:17.074Z,10.23
2019-03-11T19:37:48.572Z,11.57
2019-03-11T19:40:19.980Z,11.23
2019-03-11T19:42:51.292Z,11.23
2019-03-11T19:45:22.778Z,11.73
2019-03-11T19:47:54.136Z,10.60
2019-03-11T19:50:25.960Z,10.93
2019-03-11T19:52:59.385Z,11.53
2019-03-11T19:55:30.350Z,12.80
2019-03-11T19:58:01.585Z,13.20
2019-03-11T20:00:32.964Z,13.13
2019-03-11T20:03:05.315Z,14.03
2019-03-11T20:05:36.568Z,13.53
2019-03-11T20:08:07.937Z,13.97
2019-03-11T20:10:39.076Z,14.47
2019-03-11T20:13:10.272Z,13.13
2019-03-11T20:15:41.506Z,13.20
2019-03-11T20:18:12.889Z,13.57
2019-03-11T20:20:44.253Z,11.90
2019-03-11T20:23:15.570Z,11.27
2019-03-11T20:25:46.848Z,12.00
2019-03-11T20:28:18.244Z,11.57
2019-03-11T20:30:49.439Z,11.63
2019-03-11T20:33:20.734Z,12.60
2019-03-11T20:35:52.023Z,12.07
2019-03-11T20:38:42.760Z,11.40
2019-03-11T20:41:13.206Z,11.80
2019-03-11T20:43:45.024Z,11.60
2019-03-11T20:46:16.311Z,12.63
2019-03-11T20:48:47.589Z,12.67
2019-03-11T20:51:19.112Z,12.07
2019-03-11T20:53:50.326Z,12.00
2019-03-11T20:56:21.452Z,11.83
2019-03-11T20:58:52.701Z,12.50
2019-03-11T21:01:23.972Z,12.47
2019-03-11T21:03:55.666Z,12.20
2019-03-11T21:06:27.029Z,12.20
2019-03-11T21:08:58.161Z,12.70
2019-03-11T21:11:29.459Z,12.70
2019-03-11T21:14:05.251Z,11.80
2019-03-11T21:16:36.602Z,11.70
2019-03-11T21:19:07.957Z,10.30
2019-03-11T21:21:39.270Z,11.10
2019-03-11T21:24:13.600Z,11.33
2019-03-11T21:26:43.350Z,10.97
2019-03-11T21:29:15.440Z,10.77
2019-03-11T21:31:46.691Z,10.53
2019-03-11T21:34:17.966Z,10.50
2019-03-11T21:36:58.795Z,10.93
2019-03-11T21:40:07.905Z,11.40
2019-03-11T21:42:40.740Z,10.87
2019-03-11T21:45:33.976Z,11.47
2019-03-11T21:48:00.134Z,10.90
2019-03-11T21:50:31.842Z,11.63
2019-03-11T21:53:05.806Z,11.33
2019-03-11T21:55:37.120Z,12.13
2019-03-11T21:58:13.078Z,12.73
2019-03-11T22:00:41.340Z,12.60
2019-03-11T22:03:12.545Z,11.13
2019-03-11T22:05:43.876Z,12.20
2019-03-11T22:08:15.027Z,11.43
2019-03-11T22:10:46.200Z,11.17
2019-03-11T22:13:17.318Z,11.23
2019-03-11T22:15:48.480Z,11.37
2019-03-11T22:18:19.645Z,10.83
2019-03-11T22:20:50.727Z,10.17
2019-03-11T22:23:21.835Z,11.63
2019-03-11T22:25:53.007Z,11.73
2019-03-11T22:28:24.408Z,10.87
2019-03-11T22:30:55.480Z,10.50
2019-03-11T22:33:26.569Z,10.43
2019-03-11T22:35:57.763Z,10.87
2019-03-11T22:38:28.942Z,11.17
2019-03-11T22:41:06.015Z,11.00
2019-03-11T22:43:37.933Z,11.20
2019-03-11T22:46:09.027Z,10.30
2019-03-11T22:48:40.091Z,10.47
2019-03-11T22:51:11.230Z,10.67
2019-03-11T22:53:42.332Z,10.80
2019-03-11T22:56:13.589Z,9.80
2019-03-11T22:58:44.717Z,11.03
2019-03-11T23:01:16.025Z,10.30
2019-03-11T23:03:50.744Z,10.03
2019-03-11T23:06:22.155Z,10.30
2019-03-11T23:09:06.396Z,9.73
2019-03-11T23:11:42.262Z,8.70
2019-03-11T23:14:21.597Z,10.17
2019-03-11T23:16:57.436Z,9.83
2019-03-11T23:19:28.501Z,9.70
2019-03-11T23:21:59.606Z,10.30
2019-03-11T23:24:30.684Z,10.10
2019-03-11T23:27:01.824Z,9.73
2019-03-11T23:29:32.994Z,10.70
2019-03-11T23:32:05.221Z,9.67
2019-03-11T23:34:36.356Z,9.90
2019-03-11T23:37:07.470Z,10.10
2019-03-11T23:39:38.622Z,11.23
2019-03-11T23:42:09.760Z,10.27
2019-03-11T23:44:40.824Z,9.93
2019-03-11T23:47:12.307Z,9.23
2019-03-11T23:49:43.441Z,10.37
2019-03-11T23:52:14.748Z,10.80
2019-03-11T23:54:45.874Z,10.40
2019-03-11T23:57:17.084Z,10.90
2019-03-11T23:59:48.346Z,10.43
